createdAt,value
2023-04-04T00:00:21.435Z,100164.81
2023-04-04T00:02:49.371Z,100162.50
2023-04-04T00:05:16.161Z,100168.47
2023-04-04T00:07:42.803Z,100166.78
2023-04-04T00:10:09.772Z,100170.34
2023-04-04T00:12:36.613Z,100167.13
2023-04-04T00:15:03.483Z,100168.28
2023-04-04T00:17:30.498Z,100174.41
2023-04-04T00:19:58.054Z,100164.81
2023-04-04T00:22:24.666Z,100170.63
2023-04-04T00:24:51.616Z,100169.69
2023-04-04T00:27:18.285Z,100177.56
2023-04-04T00:29:45.481Z,100175.00
2023-04-04T00:32:12.254Z,100175.00
2023-04-04T00:34:38.869Z,100175.13
2023-04-04T00:37:07.525Z,100169.75
2023-04-04T00:39:34.472Z,100170.75
2023-04-04T00:42:01.487Z,100173.47
2023-04-04T00:44:28.488Z,100169.94
2023-04-04T00:46:55.202Z,100171.91
2023-04-04T00:49:21.828Z,100173.47
2023-04-04T00:51:49.344Z,100172.69
2023-04-04T00:54:16.237Z,100170.91
2023-04-04T00:56:42.845Z,100164.16
2023-04-04T00:59:09.678Z,100163.34
2023-04-04T01:01:37.079Z,100167.50
2023-04-04T01:04:04.589Z,100170.28
2023-04-04T01:06:32.812Z,100165.03
2023-04-04T01:08:59.910Z,100157.28
2023-04-04T01:11:28.338Z,100161.63
2023-04-04T01:13:55.900Z,100164.09
2023-04-04T01:16:24.191Z,100166.69
2023-04-04T01:18:51.620Z,100162.16
2023-04-04T01:21:21.889Z,100163.75
2023-04-04T01:24:04.499Z,100161.31
2023-04-04T01:26:31.695Z,100155.22
2023-04-04T01:28:59.169Z,100154.53
2023-04-04T01:31:37.614Z,100153.63
2023-04-04T01:34:32.054Z,100146.84
2023-04-04T01:37:07.781Z,100159.13
2023-04-04T01:39:49.509Z,100147.81
2023-04-04T01:42:17.042Z,100140.06
2023-04-04T01:44:44.516Z,100145.28
2023-04-04T01:47:13.180Z,100142.53
2023-04-04T01:49:39.828Z,100140.94
2023-04-04T01:52:07.517Z,100135.91
2023-04-04T01:54:36.076Z,100135.94
2023-04-04T01:57:02.793Z,100140.22
2023-04-04T01:59:29.625Z,100135.06
2023-04-04T02:01:56.375Z,100129.09
2023-04-04T02:04:23.479Z,100131.72
2023-04-04T02:06:50.421Z,100131.69
2023-04-04T02:09:17.079Z,100132.47
2023-04-04T02:11:43.776Z,100118.63
2023-04-04T02:14:10.412Z,100125.47
2023-04-04T02:16:37.042Z,100122.97
2023-04-04T02:19:03.894Z,100125.78
2023-04-04T02:21:30.726Z,100123.19
2023-04-04T02:23:57.371Z,100121.72
2023-04-04T02:26:23.993Z,100116.44
2023-04-04T02:28:50.643Z,100116.66
2023-04-04T02:31:17.361Z,100116.66
2023-04-04T02:33:44.041Z,100118.34
2023-04-04T02:36:12.095Z,100113.97
2023-04-04T02:38:38.756Z,100111.31
2023-04-04T02:41:05.366Z,100106.22
2023-04-04T02:43:32.073Z,100101.97
2023-04-04T02:46:01.157Z,100100.41
2023-04-04T02:48:29.816Z,100107.44
2023-04-04T02:50:56.415Z,100096.91
2023-04-04T02:53:23.073Z,100100.50
2023-04-04T02:55:49.688Z,100096.16
2023-04-04T02:58:16.470Z,100087.47
2023-04-04T03:00:43.393Z,100085.72
2023-04-04T03:03:10.448Z,100089.16
2023-04-04T03:05:37.287Z,100086.47
2023-04-04T03:08:04.923Z,100089.00
2023-04-04T03:10:31.821Z,100091.66
2023-04-04T03:12:59.228Z,100094.34
2023-04-04T03:15:26.666Z,100081.38
2023-04-04T03:17:54.302Z,100079.78
2023-04-04T03:20:22.107Z,100074.63
2023-04-04T03:22:49.240Z,100075.63
2023-04-04T03:25:16.724Z,100074.94
2023-04-04T03:27:43.407Z,100070.59
2023-04-04T03:30:10.792Z,100074.13
2023-04-04T03:32:39.365Z,100075.19
2023-04-04T03:35:08.898Z,100064.75
2023-04-04T03:37:35.552Z,100070.84
2023-04-04T03:40:02.467Z,100067.41
2023-04-04T03:42:33.697Z,100065.69
2023-04-04T03:45:00.888Z,100075.31
2023-04-04T03:47:27.526Z,100064.09
2023-04-04T03:49:56.165Z,100067.56
2023-04-04T03:52:22.848Z,100068.59
2023-04-04T03:54:49.474Z,100066.91
2023-04-04T03:57:16.078Z,100069.53
2023-04-04T03:59:42.692Z,100056.50
2023-04-04T04:02:09.369Z,100063.38
2023-04-04T04:04:36.270Z,100060.00
2023-04-04T04:07:02.856Z,100062.59
2023-04-04T04:09:29.519Z,100062.66
2023-04-04T04:11:56.527Z,100057.59
2023-04-04T04:14:23.179Z,100050.03
2023-04-04T04:16:49.882Z,100046.75
2023-04-04T04:19:16.685Z,100047.75
2023-04-04T04:21:43.966Z,100053.94
2023-04-04T04:24:10.668Z,100045.34
2023-04-04T04:26:37.272Z,100051.47
2023-04-04T04:29:03.900Z,100054.19
2023-04-04T04:31:31.418Z,100054.25
2023-04-04T04:33:58.252Z,100048.16
2023-04-04T04:36:25.779Z,100054.28
2023-04-04T04:38:52.394Z,100044.09
2023-04-04T04:41:19.068Z,100048.44
2023-04-04T04:43:45.875Z,100049.25
2023-04-04T04:46:12.561Z,100047.69
2023-04-04T04:48:39.239Z,100047.69
2023-04-04T04:51:06.208Z,100046.78
2023-04-04T04:53:32.947Z,100050.31
2023-04-04T04:55:59.514Z,100051.34
2023-04-04T04:58:27.609Z,100060.25
2023-04-04T05:00:58.953Z,100059.56
2023-04-04T05:03:26.072Z,100059.63
2023-04-04T05:05:53.538Z,100060.31
2023-04-04T05:08:20.161Z,100061.97
2023-04-04T05:10:46.842Z,100061.97
2023-04-04T05:13:14.079Z,100067.28
2023-04-04T05:15:40.871Z,100062.09
2023-04-04T05:18:07.464Z,100063.75
2023-04-04T05:20:35.373Z,100062.78
2023-04-04T05:23:02.032Z,100068.81
2023-04-04T05:25:29.070Z,100070.53
2023-04-04T05:27:56.417Z,100068.78
2023-04-04T05:30:23.543Z,100070.47
2023-04-04T05:32:51.640Z,100076.59
2023-04-04T05:35:19.012Z,100073.00
2023-04-04T05:37:45.691Z,100078.06
2023-04-04T05:40:12.420Z,100080.66
2023-04-04T05:42:39.072Z,100085.84
2023-04-04T05:45:06.307Z,100083.94
2023-04-04T05:47:33.097Z,100080.31
2023-04-04T05:49:59.708Z,100081.16
2023-04-04T05:52:26.717Z,100080.16
2023-04-04T05:54:53.309Z,100082.66
2023-04-04T05:57:19.945Z,100087.81
2023-04-04T05:59:46.619Z,100092.00
2023-04-04T06:02:13.506Z,100095.34
2023-04-04T06:04:41.111Z,100096.09
2023-04-04T06:07:07.874Z,100102.06
2023-04-04T06:09:36.296Z,100102.88
2023-04-04T06:12:04.748Z,100100.28
2023-04-04T06:14:31.435Z,100106.25
2023-04-04T06:16:59.053Z,100110.41
2023-04-04T06:19:26.061Z,100107.69
2023-04-04T06:21:52.696Z,100117.13
2023-04-04T06:24:19.570Z,100116.94
2023-04-04T06:26:46.513Z,100110.75
2023-04-04T06:29:13.364Z,100113.16
2023-04-04T06:31:40.079Z,100113.13
2023-04-04T06:34:06.756Z,100121.72
2023-04-04T06:36:33.408Z,100127.50
2023-04-04T06:39:00.050Z,100133.44
2023-04-04T06:41:27.285Z,100133.38
2023-04-04T06:43:53.991Z,100120.94
2023-04-04T06:46:20.659Z,100122.63
2023-04-04T06:48:47.281Z,100124.97
2023-04-04T06:51:13.954Z,100129.09
2023-04-04T06:53:40.587Z,100127.19
2023-04-04T06:56:08.204Z,100126.13
2023-04-04T06:58:34.810Z,100131.22
2023-04-04T07:01:02.297Z,100124.91
2023-04-04T07:03:29.030Z,100125.41
2023-04-04T07:05:55.667Z,100120.78
2023-04-04T07:08:22.963Z,100116.16
2023-04-04T07:10:49.655Z,100118.25
2023-04-04T07:13:16.843Z,100116.91
2023-04-04T07:15:48.939Z,100121.25
2023-04-04T07:18:16.639Z,100119.88
2023-04-04T07:20:43.857Z,100121.88
2023-04-04T07:23:13.402Z,100118.09
2023-04-04T07:25:40.050Z,100121.16
2023-04-04T07:28:12.972Z,100117.97
2023-04-04T07:30:40.292Z,100117.06
2023-04-04T07:33:07.269Z,100121.63
2023-04-04T07:35:34.990Z,100116.66
2023-04-04T07:38:01.620Z,100121.50
2023-04-04T07:40:28.268Z,100119.69
2023-04-04T07:42:54.967Z,100119.31
2023-04-04T07:45:24.852Z,100117.22
2023-04-04T07:47:51.645Z,100105.81
2023-04-04T07:50:18.608Z,100115.88
2023-04-04T07:52:52.301Z,100121.78
2023-04-04T07:55:20.204Z,100116.97
2023-04-04T07:57:47.313Z,100122.22
2023-04-04T08:00:14.800Z,100116.56
2023-04-04T08:02:43.863Z,100117.22
2023-04-04T08:05:10.782Z,100123.53
2023-04-04T08:07:37.528Z,100114.00
2023-04-04T08:10:04.411Z,100114.31
2023-04-04T08:12:31.043Z,100113.13
2023-04-04T08:14:57.650Z,100115.34
2023-04-04T08:17:24.811Z,100117.25
2023-04-04T08:19:51.565Z,100116.34
2023-04-04T08:22:18.611Z,100116.00
2023-04-04T08:24:46.279Z,100114.31
2023-04-04T08:27:14.975Z,100116.00
2023-04-04T08:29:41.973Z,100115.88
2023-04-04T08:32:09.217Z,100109.16
2023-04-04T08:34:35.821Z,100110.66
2023-04-04T08:37:02.511Z,100115.53
2023-04-04T08:39:29.107Z,100118.28
2023-04-04T08:42:06.628Z,100113.66
2023-04-04T08:44:34.932Z,100118.28
2023-04-04T08:47:06.179Z,100109.16
2023-04-04T08:49:38.214Z,100119.88
2023-04-04T08:52:06.494Z,100120.06
2023-04-04T08:54:35.011Z,100121.47
2023-04-04T08:57:02.555Z,100122.75
2023-04-04T08:59:29.425Z,100108.75
2023-04-04T09:02:14.480Z,100113.56
2023-04-04T09:04:48.704Z,100113.69
2023-04-04T09:07:22.913Z,100114.00
2023-04-04T09:09:50.999Z,100109.78
2023-04-04T09:12:18.646Z,100111.22
2023-04-04T09:14:47.648Z,100118.97
2023-04-04T09:17:14.312Z,100125.00
2023-04-04T09:19:40.953Z,100123.78
2023-04-04T09:22:09.085Z,100122.50
2023-04-04T09:24:40.544Z,100115.13
2023-04-04T09:27:11.676Z,100120.63
2023-04-04T09:29:40.145Z,100117.09
2023-04-04T09:32:11.121Z,100116.72
2023-04-04T09:34:37.976Z,100114.25
2023-04-04T09:37:05.812Z,100110.91
2023-04-04T09:39:34.241Z,100115.59
2023-04-04T09:42:01.690Z,100107.69
2023-04-04T09:44:33.324Z,100113.56
2023-04-04T09:47:31.138Z,100111.41
2023-04-04T09:50:01.800Z,100119.00
2023-04-04T09:52:33.246Z,100115.31
2023-04-04T09:55:01.551Z,100117.94
2023-04-04T09:57:32.769Z,100124.38
2023-04-04T10:00:07.136Z,100125.16
2023-04-04T10:02:34.084Z,100125.31
2023-04-04T10:05:06.050Z,100123.28
2023-04-04T10:07:34.021Z,100118.72
2023-04-04T10:10:06.620Z,100124.06
2023-04-04T10:12:33.352Z,100119.06
2023-04-04T10:15:01.319Z,100115.56
2023-04-04T10:17:37.625Z,100116.78
2023-04-04T10:20:12.947Z,100116.13
2023-04-04T10:22:40.260Z,100113.72
2023-04-04T10:25:07.888Z,100109.97
2023-04-04T10:27:34.882Z,100111.91
2023-04-04T10:30:02.288Z,100106.06
2023-04-04T10:33:15.528Z,100101.06
2023-04-04T10:35:47.885Z,100099.72
2023-04-04T10:38:14.670Z,100102.97
2023-04-04T10:40:47.016Z,100100.34
2023-04-04T10:43:15.759Z,100101.22
2023-04-04T10:45:43.258Z,100097.66
2023-04-04T10:48:10.747Z,100092.72
2023-04-04T10:50:39.400Z,100095.25
2023-04-04T10:53:07.654Z,100097.00
2023-04-04T10:55:35.549Z,100094.44
2023-04-04T10:58:02.905Z,100089.81
2023-04-04T11:00:29.726Z,100085.75
2023-04-04T11:02:58.509Z,100080.56
2023-04-04T11:05:26.262Z,100071.94
2023-04-04T11:08:07.737Z,100071.22
2023-04-04T11:10:44.657Z,100070.81
2023-04-04T11:13:29.286Z,100072.69
2023-04-04T11:16:04.108Z,100070.97
2023-04-04T11:18:42.884Z,100069.31
2023-04-04T11:21:14.143Z,100071.81
2023-04-04T11:23:49.867Z,100068.59
2023-04-04T11:26:36.600Z,100065.22
2023-04-04T11:29:09.863Z,100063.50
2023-04-04T11:31:40.742Z,100062.75
2023-04-04T11:34:15.444Z,100050.19
2023-04-04T11:36:43.157Z,100052.75
2023-04-04T11:39:26.834Z,100051.03
2023-04-04T11:42:13.862Z,100052.22
2023-04-04T11:44:43.038Z,100039.94
2023-04-04T11:47:11.808Z,100041.06
2023-04-04T11:49:41.644Z,100036.53
2023-04-04T11:52:14.973Z,100029.03
2023-04-04T11:54:43.838Z,100028.78
2023-04-04T11:57:18.927Z,100023.09
2023-04-04T11:59:48.757Z,100017.06
2023-04-04T12:02:27.743Z,100015.31
2023-04-04T12:04:55.479Z,100009.72
2023-04-04T12:07:24.720Z,100013.88
2023-04-04T12:09:52.353Z,100011.56
2023-04-04T12:12:19.897Z,100002.03
2023-04-04T12:14:47.155Z,100004.28
2023-04-04T12:17:16.159Z,99996.03
2023-04-04T12:19:43.950Z,100001.28
2023-04-04T12:22:10.927Z,99990.22
2023-04-04T12:24:37.929Z,99986.03
2023-04-04T12:27:06.202Z,99977.47
2023-04-04T12:29:36.484Z,99966.09
2023-04-04T12:32:04.519Z,99971.00
2023-04-04T12:34:33.251Z,99964.38
2023-04-04T12:37:01.847Z,99961.00
2023-04-04T12:39:30.130Z,99969.38
2023-04-04T12:42:05.420Z,99963.47
2023-04-04T12:44:31.979Z,99964.19
2023-04-04T12:47:04.821Z,99967.06
2023-04-04T12:49:39.421Z,99957.19
2023-04-04T12:52:07.723Z,99953.94
2023-04-04T12:54:38.831Z,99960.72
2023-04-04T12:57:07.550Z,99955.50
2023-04-04T12:59:37.731Z,99950.88
2023-04-04T13:02:09.097Z,99946.16
2023-04-04T13:04:35.948Z,99944.69
2023-04-04T13:07:03.292Z,99943.81
2023-04-04T13:09:30.345Z,99938.72
2023-04-04T13:12:04.612Z,99934.28
2023-04-04T13:14:56.382Z,99930.91
2023-04-04T13:17:23.113Z,99933.44
2023-04-04T13:19:50.060Z,99922.50
2023-04-04T13:22:16.670Z,99911.50
2023-04-04T13:24:43.425Z,99909.81
2023-04-04T13:27:10.153Z,99911.31
2023-04-04T13:29:36.867Z,99911.44
2023-04-04T13:32:03.467Z,99913.50
2023-04-04T13:34:31.311Z,99899.84
2023-04-04T13:36:57.939Z,99907.56
2023-04-04T13:39:25.213Z,99903.16
2023-04-04T13:41:51.867Z,99907.38
2023-04-04T13:44:18.513Z,99895.41
2023-04-04T13:46:45.140Z,99895.41
2023-04-04T13:49:11.855Z,99901.78
2023-04-04T13:51:38.581Z,99895.78
2023-04-04T13:54:05.151Z,99885.38
2023-04-04T13:56:31.791Z,99884.91
2023-04-04T13:58:58.505Z,99895.22
2023-04-04T14:01:25.196Z,99880.06
2023-04-04T14:03:51.859Z,99881.78
2023-04-04T14:06:18.560Z,99874.00
2023-04-04T14:08:46.618Z,99868.06
2023-04-04T14:11:14.107Z,99874.13
2023-04-04T14:13:40.734Z,99870.31
2023-04-04T14:16:08.628Z,99872.25
2023-04-04T14:18:35.431Z,99867.31
2023-04-04T14:21:03.081Z,99863.41
2023-04-04T14:23:33.069Z,99856.56
2023-04-04T14:25:59.763Z,99857.50
2023-04-04T14:28:27.205Z,99860.81
2023-04-04T14:30:53.907Z,99858.00
2023-04-04T14:33:20.512Z,99864.81
2023-04-04T14:35:47.107Z,99862.69
2023-04-04T14:38:13.818Z,99858.59
2023-04-04T14:40:40.404Z,99851.50
2023-04-04T14:43:07.810Z,99850.50
2023-04-04T14:45:34.710Z,99851.84
2023-04-04T14:48:02.013Z,99847.84
2023-04-04T14:50:28.668Z,99846.84
2023-04-04T14:52:56.670Z,99851.28
2023-04-04T14:55:23.684Z,99851.09
2023-04-04T15:00:21.123Z,99835.44
2023-04-04T15:02:47.959Z,99844.16
2023-04-04T15:05:18.778Z,99837.53
2023-04-04T15:07:46.630Z,99842.13
2023-04-04T15:10:13.647Z,99823.59
2023-04-04T15:12:40.613Z,99832.00
2023-04-04T15:15:08.432Z,99826.13
2023-04-04T15:17:35.128Z,99820.59
2023-04-04T15:20:01.916Z,99827.75
2023-04-04T15:22:28.794Z,99823.84
2023-04-04T15:24:56.702Z,99821.91
2023-04-04T15:27:23.584Z,99817.34
2023-04-04T15:29:50.288Z,99813.50
2023-04-04T15:32:17.174Z,99812.16
2023-04-04T15:34:43.834Z,99806.25
2023-04-04T15:37:10.673Z,99805.94
2023-04-04T15:39:49.662Z,99812.69
2023-04-04T15:42:18.894Z,99811.50
2023-04-04T15:44:45.638Z,99810.47
2023-04-04T15:47:12.325Z,99809.94
2023-04-04T15:49:39.420Z,99810.75
2023-04-04T15:52:06.225Z,99803.78
2023-04-04T15:54:33.014Z,99805.50
2023-04-04T15:56:59.881Z,99808.94
2023-04-04T15:59:27.393Z,99809.59
2023-04-04T16:01:54.285Z,99808.06
2023-04-04T16:04:21.098Z,99801.94
2023-04-04T16:06:47.881Z,99802.28
2023-04-04T16:09:14.577Z,99798.63
2023-04-04T16:11:41.334Z,99803.91
2023-04-04T16:14:09.451Z,99806.84
2023-04-04T16:16:36.709Z,99807.34
2023-04-04T16:19:03.384Z,99803.59
2023-04-04T16:21:31.241Z,99802.69
2023-04-04T16:23:58.114Z,99804.56
2023-04-04T16:26:24.942Z,99795.06
2023-04-04T16:28:51.766Z,99787.81
2023-04-04T16:31:18.586Z,99791.91
2023-04-04T16:33:45.468Z,99796.34
2023-04-04T16:36:12.559Z,99802.84
2023-04-04T16:38:39.706Z,99797.28
2023-04-04T16:41:06.551Z,99791.78
2023-04-04T16:43:33.342Z,99789.28
2023-04-04T16:45:59.967Z,99791.47
2023-04-04T16:48:26.734Z,99787.44
2023-04-04T16:50:54.745Z,99782.22
2023-04-04T16:53:21.499Z,99795.44
2023-04-04T16:55:48.254Z,99786.31
2023-04-04T16:58:15.095Z,99780.81
2023-04-04T17:00:41.980Z,99778.31
2023-04-04T17:03:08.999Z,99782.25
2023-04-04T17:05:36.278Z,99779.41
2023-04-04T17:08:02.961Z,99783.81
2023-04-04T17:10:29.683Z,99786.50
2023-04-04T17:12:56.602Z,99784.72
2023-04-04T17:15:23.347Z,99775.59
2023-04-04T17:17:49.950Z,99776.78
2023-04-04T17:20:19.551Z,99779.63
2023-04-04T17:22:47.399Z,99779.41
2023-04-04T17:25:14.235Z,99786.78
2023-04-04T17:27:44.460Z,99787.84
2023-04-04T17:30:11.948Z,99787.63
2023-04-04T17:32:39.231Z,99785.91
2023-04-04T17:35:07.043Z,99787.91
2023-04-04T17:37:34.245Z,99791.25
2023-04-04T17:40:04.443Z,99792.28
2023-04-04T17:42:32.182Z,99794.28
2023-04-04T17:44:59.006Z,99791.72
2023-04-04T17:47:26.359Z,99794.47
2023-04-04T17:49:54.229Z,99786.88
2023-04-04T17:52:21.590Z,99787.16
2023-04-04T17:54:48.842Z,99790.81
2023-04-04T17:57:15.727Z,99787.47
2023-04-04T17:59:42.750Z,99784.16
2023-04-04T18:02:09.400Z,99789.50
2023-04-04T18:04:37.998Z,99788.06
2023-04-04T18:07:06.442Z,99795.56
2023-04-04T18:09:33.050Z,99787.88
2023-04-04T18:12:00.935Z,99800.16
2023-04-04T18:14:27.628Z,99792.38
2023-04-04T18:16:54.415Z,99791.78
2023-04-04T18:19:21.278Z,99782.41
2023-04-04T18:21:51.607Z,99790.84
2023-04-04T18:24:18.302Z,99791.44
2023-04-04T18:26:45.193Z,99794.34
2023-04-04T18:29:14.757Z,99800.75
2023-04-04T18:31:41.775Z,99797.53
2023-04-04T18:34:08.662Z,99798.56
2023-04-04T18:36:36.480Z,99791.72
2023-04-04T18:39:03.681Z,99801.47
2023-04-04T18:41:30.720Z,99806.06
2023-04-04T18:43:57.369Z,99819.28
2023-04-04T18:46:24.249Z,99817.03
2023-04-04T18:48:51.082Z,99809.47
2023-04-04T18:51:17.682Z,99813.03
2023-04-04T18:53:44.386Z,99814.09
2023-04-04T18:56:11.180Z,99815.84
2023-04-04T18:58:37.803Z,99810.66
2023-04-04T19:01:04.451Z,99806.66
2023-04-04T19:03:40.671Z,99816.47
2023-04-04T19:06:10.280Z,99813.28
2023-04-04T19:08:42.700Z,99818.16
2023-04-04T19:11:10.678Z,99807.91
2023-04-04T19:13:37.471Z,99809.97
2023-04-04T19:16:04.842Z,99821.56
2023-04-04T19:18:31.524Z,99813.97
2023-04-04T19:20:58.832Z,99821.16
2023-04-04T19:23:25.636Z,99818.75
2023-04-04T19:25:52.996Z,99812.88
2023-04-04T19:28:20.104Z,99826.97
2023-04-04T19:30:48.920Z,99821.16
2023-04-04T19:33:21.932Z,99823.09
2023-04-04T19:35:57.161Z,99824.00
2023-04-04T19:38:29.454Z,99819.69
2023-04-04T19:40:59.258Z,99819.09
2023-04-04T19:43:27.003Z,99818.28
2023-04-04T19:46:00.256Z,99819.50
2023-04-04T19:48:42.851Z,99824.09
2023-04-04T19:51:29.611Z,99822.63
2023-04-04T19:53:58.511Z,99820.28
2023-04-04T19:56:27.484Z,99820.47
2023-04-04T19:58:56.737Z,99821.56
2023-04-04T20:01:25.858Z,99820.75
2023-04-04T20:03:52.473Z,99821.63
2023-04-04T20:06:28.990Z,99820.03
2023-04-04T20:08:57.363Z,99826.22
2023-04-04T20:11:34.699Z,99823.88
2023-04-04T20:14:10.010Z,99818.72
2023-04-04T20:16:37.243Z,99819.75
2023-04-04T20:19:06.795Z,99817.59
2023-04-04T20:21:35.686Z,99823.28
2023-04-04T20:24:06.025Z,99823.09
2023-04-04T20:26:36.013Z,99824.81
2023-04-04T20:29:06.611Z,99817.06
2023-04-04T20:31:48.308Z,99819.66
2023-04-04T20:34:33.851Z,99821.56
2023-04-04T20:37:02.853Z,99822.59
2023-04-04T20:39:41.585Z,99825.25
2023-04-04T20:42:19.893Z,99825.25
2023-04-04T20:44:47.146Z,99828.69
2023-04-04T20:47:51.251Z,99828.75
2023-04-04T20:50:17.947Z,99827.13
2023-04-04T20:52:58.826Z,99830.78
2023-04-04T20:55:28.296Z,99826.47
2023-04-04T20:57:56.842Z,99831.06
2023-04-04T21:00:23.715Z,99825.06
2023-04-04T21:02:50.459Z,99826.94
2023-04-04T21:05:31.904Z,99838.28
2023-04-04T21:08:00.419Z,99827.06
2023-04-04T21:10:27.040Z,99827.97
2023-04-04T21:12:58.432Z,99826.25
2023-04-04T21:15:30.072Z,99824.53
2023-04-04T21:17:59.469Z,99835.06
2023-04-04T21:20:41.324Z,99829.09
2023-04-04T21:23:23.211Z,99830.16
2023-04-04T21:25:49.956Z,99829.34
2023-04-04T21:28:16.562Z,99825.13
2023-04-04T21:30:45.182Z,99835.44
2023-04-04T21:33:18.994Z,99835.53
2023-04-04T21:35:48.132Z,99833.00
2023-04-04T21:38:32.837Z,99834.59
2023-04-04T21:41:12.850Z,99838.06
2023-04-04T21:43:39.436Z,99835.59
2023-04-04T21:46:06.136Z,99834.78
2023-04-04T21:48:32.797Z,99833.97
2023-04-04T21:50:59.409Z,99830.53
2023-04-04T21:53:26.071Z,99827.13
2023-04-04T21:55:52.710Z,99826.25
2023-04-04T21:58:19.325Z,99827.19
2023-04-04T22:00:46.366Z,99832.41
2023-04-04T22:03:13.104Z,99826.34
2023-04-04T22:05:39.785Z,99818.56
2023-04-04T22:08:06.691Z,99814.31
2023-04-04T22:10:33.647Z,99826.47
2023-04-04T22:13:00.388Z,99816.22
2023-04-04T22:15:29.895Z,99825.81
2023-04-04T22:18:03.681Z,99820.75
2023-04-04T22:20:32.364Z,99816.44
2023-04-04T22:22:59.930Z,99818.19
2023-04-04T22:25:27.285Z,99814.81
2023-04-04T22:27:54.030Z,99815.59
2023-04-04T22:30:21.845Z,99813.81
2023-04-04T22:32:48.586Z,99815.53
2023-04-04T22:35:15.268Z,99815.59
2023-04-04T22:37:41.929Z,99816.66
2023-04-04T22:40:13.179Z,99815.84
2023-04-04T22:42:39.903Z,99812.41
2023-04-04T22:45:07.171Z,99809.03
2023-04-04T22:47:33.854Z,99815.19
2023-04-04T22:50:04.725Z,99810.03
2023-04-04T22:52:32.077Z,99807.44
2023-04-04T22:54:59.652Z,99807.50
2023-04-04T22:57:26.269Z,99799.69
2023-04-04T22:59:52.921Z,99804.91
2023-04-04T23:02:19.552Z,99800.66
2023-04-04T23:04:46.205Z,99801.56
2023-04-04T23:07:12.942Z,99798.97
2023-04-04T23:09:39.540Z,99786.81
2023-04-04T23:12:06.580Z,99794.59
2023-04-04T23:14:38.722Z,99790.31
2023-04-04T23:17:06.986Z,99787.91
2023-04-04T23:19:33.624Z,99792.25
2023-04-04T23:22:00.641Z,99787.06
2023-04-04T23:24:27.524Z,99792.16
2023-04-04T23:26:54.223Z,99791.34
2023-04-04T23:29:20.896Z,99782.72
2023-04-04T23:31:47.534Z,99789.66
2023-04-04T23:34:14.194Z,99779.28
2023-04-04T23:36:40.957Z,99781.84
2023-04-04T23:39:07.624Z,99782.63
2023-04-04T23:41:34.233Z,99780.91
2023-04-04T23:44:01.126Z,99780.13
2023-04-04T23:46:30.370Z,99775.13
2023-04-04T23:48:57.055Z,99775.28
2023-04-04T23:51:25.688Z,99773.66
2023-04-04T23:53:52.641Z,99783.09
2023-04-04T23:56:19.219Z,99772.81
2023-04-04T23:58:45.859Z,99766.94
